Aérodrome :







RETROUVEZ-NOUS SUR...

 
LOGIN :

S'inscrire | Disclaimer

   EN    FR    IT 

 









Légende :    VFR   VFR Marginal   IFR   IFR Intensif   IFR Très Intensif
Visi : 
Plafond : 
>= 8 km
>= 3000ft
5 à 8 km
1000 à 3000 ft
1500m à 5 km
500 à 1000 ft
800 à 1500m
200 à 500 ft
< 800m
< 200 ft
Symboles :   Orages  Brouillard  Fortes neiges  Fortes précipitations  Vent > 20 kt






- Altitude de l'aérodrome : 1808 ft
- Code IATA : YWK


CYWK - Wabush

DERNIER METAR :
  • 290645Z AUTO 00000KT 6SM -SN SCT012 OVC085 M09/M10 A2964 RMK SLP081

METARs EXPIRÉS :
  • 290600Z AUTO 00000KT 7SM -SN BKN012 BKN070 OVC082 M08/M10 A2964 RMK SLP081
  • 290547Z AUTO 00000KT 8SM -SN BKN012 BKN070 OVC082 M08/M10 A2965 RMK SLP082
  • 290511Z AUTO 21003KT 9SM -SN FEW060 OVC078 M08/M10 A2965 RMK SLP083
  • 290400Z AUTO VRB02KT 9SM OVC085 M08/M09 A2965 RMK SLP082

TAF TAF CYWK
Valide du 29 à 02h jusqu'au 29 à 14h UTC


290143Z 2902/2914 VRB03KT P6SM OVC008
TEMPO 2902/2914 6SM -SN OVC050
PROB30 2902/2914 OVC006 RMK NXT FCST BY 290800Z
FIR CZUL / Amérique du Nord



MET'MAP, la Météo Aéronautique d'un coup d'oeil ! - Copyright ORBIFLY Décembre 2007 - Disclaimer

ORBIFLY MET'MAP TEAM :

Programmation & Développement : Alexandra Zaïnal
Sur une idée originale de : Baudouin d'Aumeries
Assistance à la programmation : Marc-Olivier Méhu
Soutien technique & logistique : Manuel Goepfert

Contact : metmap@orbifly.com




SOURCES & CREDITS :

   NOAA